Time;durP1;ratioP1;P1;durP2;ratioP2;P2;SDS_P1;SDS_P2;PMS_P1;PMS_P2;Temp;Humidity;BMP_temperature;BMP_pressure;BME280_temperature;BME280_humidity;BME280_pressure;Samples;Min_cycle;Max_cycle;Signal;HPM_P1;HPM_P2
2024/03/28 00:01:01;;;;;;;11.95;6.68;;;7.40;99.90;;;;;;4981310;28;20039;-88
2024/03/28 00:03:28;;;;;;;15.32;7.50;;;7.70;99.90;;;;;;4998086;28;20054;-89
2024/03/28 00:05:56;;;;;;;11.38;6.93;;;7.60;99.90;;;;;;4982230;28;20038;-88
2024/03/28 00:08:24;;;;;;;11.77;7.30;;;7.30;99.90;;;;;;4981445;28;20042;-89
2024/03/28 00:10:52;;;;;;;13.68;7.43;;;7.70;99.90;;;;;;4973776;28;20182;-88
2024/03/28 00:13:19;;;;;;;11.30;7.22;;;7.40;99.90;;;;;;4979221;28;20061;-88
2024/03/28 00:15:56;;;;;;;14.15;7.32;;;8.10;99.90;;;;;;4982567;28;20407;-88
2024/03/28 00:18:23;;;;;;;13.65;6.68;;;7.40;99.90;;;;;;4981870;28;20536;-88
2024/03/28 00:20:58;;;;;;;12.48;7.00;;;7.40;99.90;;;;;;4981962;28;20031;-88
2024/03/28 00:23:26;;;;;;;13.20;7.55;;;7.40;99.90;;;;;;4975883;28;20481;-88
2024/03/28 00:25:57;;;;;;;15.15;7.55;;;7.40;99.90;;;;;;4973101;28;20054;-88
2024/03/28 00:28:24;;;;;;;14.95;7.80;;;7.40;99.90;;;;;;4974346;28;20068;-88
2024/03/28 00:30:51;;;;;;;14.68;8.02;;;7.30;99.90;;;;;;4979367;28;20543;-88
2024/03/28 00:33:18;;;;;;;11.45;6.90;;;7.30;99.90;;;;;;4981958;28;20050;-88
2024/03/28 00:35:47;;;;;;;12.82;7.38;;;8.10;99.90;;;;;;4972847;28;20480;-88
2024/03/28 00:38:17;;;;;;;14.15;7.82;;;7.40;99.90;;;;;;4981339;28;20381;-88
2024/03/28 00:40:53;;;;;;;12.88;7.15;;;7.30;99.90;;;;;;4974138;28;20078;-88
2024/03/28 00:43:21;;;;;;;12.77;7.50;;;7.30;99.90;;;;;;4973670;28;20633;-88
2024/03/28 00:45:49;;;;;;;12.98;8.02;;;7.30;99.90;;;;;;4973175;28;20404;-88
2024/03/28 00:48:18;;;;;;;13.68;7.80;;;7.30;99.90;;;;;;4983838;28;20902;-88
2024/03/28 00:50:58;;;;;;;14.00;7.57;;;7.40;99.90;;;;;;4989119;28;20062;-88
2024/03/28 00:53:25;;;;;;;14.50;7.95;;;7.30;99.90;;;;;;4967286;28;20075;-88
2024/03/28 00:55:52;;;;;;;15.05;8.13;;;7.30;99.90;;;;;;4986808;28;20066;-88
2024/03/28 00:58:19;;;;;;;13.85;8.07;;;7.30;99.90;;;;;;4968933;28;20039;-88
2024/03/28 01:00:47;;;;;;;15.30;9.18;;;7.30;99.90;;;;;;4975640;28;20109;-88
2024/03/28 01:03:15;;;;;;;16.08;9.00;;;8.00;99.90;;;;;;4992443;28;20042;-88
2024/03/28 01:05:42;;;;;;;14.65;8.23;;;7.30;99.90;;;;;;4993330;28;20455;-88
2024/03/28 01:08:11;;;;;;;13.73;7.80;;;7.30;99.90;;;;;;4997362;28;20697;-88
2024/03/28 01:10:38;;;;;;;19.75;8.60;;;7.40;99.90;;;;;;4972715;28;20043;-88
2024/03/28 01:13:05;;;;;;;15.50;8.82;;;7.50;99.90;;;;;;4978084;28;20043;-88
2024/03/28 01:15:34;;;;;;;14.25;8.15;;;8.20;99.90;;;;;;4977617;28;20385;-88
2024/03/28 01:18:01;;;;;;;15.77;9.40;;;8.20;99.90;;;;;;4984832;28;20045;-88
2024/03/28 01:20:27;;;;;;;16.00;9.20;;;7.30;99.90;;;;;;4978367;28;20039;-88
2024/03/28 01:22:54;;;;;;;16.40;9.32;;;7.40;99.90;;;;;;4978541;28;20042;-88
2024/03/28 01:25:21;;;;;;;15.88;9.27;;;7.60;99.90;;;;;;4978148;28;20094;-88
2024/03/28 01:27:48;;;;;;;17.90;9.30;;;7.70;99.90;;;;;;4978275;28;20047;-88
2024/03/28 01:30:14;;;;;;;19.55;9.73;;;7.40;99.90;;;;;;4991207;28;20400;-88
2024/03/28 01:32:41;;;;;;;17.85;8.73;;;7.40;99.90;;;;;;4977453;28;20070;-88
2024/03/28 01:35:08;;;;;;;16.33;9.07;;;7.30;99.90;;;;;;4977193;28;20126;-88
2024/03/28 01:37:35;;;;;;;15.13;9.10;;;7.40;99.90;;;;;;4965651;28;21707;-88
2024/03/28 01:40:03;;;;;;;18.05;9.27;;;7.40;99.90;;;;;;4968510;28;20045;-89
2024/03/28 01:42:29;;;;;;;16.48;9.05;;;7.40;99.90;;;;;;4976179;28;20090;-88
2024/03/28 01:44:56;;;;;;;16.60;9.63;;;7.70;99.90;;;;;;4978518;28;20054;-88
2024/03/28 01:47:23;;;;;;;16.05;9.15;;;7.40;99.90;;;;;;4976655;28;20424;-88
2024/03/28 01:49:50;;;;;;;18.25;10.32;;;7.40;99.90;;;;;;4993687;28;20058;-88
2024/03/28 01:52:17;;;;;;;18.60;10.65;;;7.30;99.90;;;;;;4980956;28;20042;-88
2024/03/28 01:54:46;;;;;;;19.73;10.43;;;8.30;99.90;;;;;;4973778;28;20039;-88
2024/03/28 01:57:14;;;;;;;20.73;10.55;;;7.40;99.90;;;;;;4977218;28;20054;-88
2024/03/28 01:59:42;;;;;;;19.92;10.15;;;7.90;99.90;;;;;;4972774;28;20027;-88
2024/03/28 02:02:09;;;;;;;19.83;10.73;;;7.40;99.90;;;;;;4965781;29;20039;-88
2024/03/28 02:04:35;;;;;;;20.13;10.52;;;7.40;99.90;;;;;;4975719;28;20034;-88
2024/03/28 02:07:02;;;;;;;20.50;10.45;;;7.40;99.90;;;;;;4976509;28;20396;-88
2024/03/28 02:09:29;;;;;;;20.60;11.27;;;7.30;99.90;;;;;;4971923;28;20065;-88
2024/03/28 02:11:58;;;;;;;18.55;10.20;;;7.60;99.90;;;;;;4968237;29;20035;-88
2024/03/28 02:14:24;;;;;;;20.02;11.25;;;7.90;99.90;;;;;;4987246;28;20034;-88
2024/03/28 02:16:51;;;;;;;21.15;11.68;;;7.30;99.90;;;;;;4976438;28;20089;-88
2024/03/28 02:19:17;;;;;;;20.02;11.65;;;7.40;99.90;;;;;;4975438;28;20043;-88
2024/03/28 02:21:47;;;;;;;23.67;12.27;;;7.30;99.90;;;;;;4976528;28;20564;-88
2024/03/28 02:24:14;;;;;;;20.65;11.70;;;7.30;99.90;;;;;;4973572;28;20510;-89
2024/03/28 02:26:41;;;;;;;20.48;11.07;;;8.10;99.90;;;;;;4976070;28;20125;-88
2024/03/28 02:29:07;;;;;;;20.48;11.27;;;7.30;99.90;;;;;;4965259;28;20039;-88
2024/03/28 02:31:34;;;;;;;21.75;11.90;;;7.30;99.90;;;;;;4988644;28;20042;-89
2024/03/28 02:34:00;;;;;;;20.85;11.90;;;7.40;99.90;;;;;;4991185;28;20043;-89
2024/03/28 02:36:27;;;;;;;22.17;12.70;;;7.30;99.90;;;;;;4968693;29;20126;-88
2024/03/28 02:38:54;;;;;;;21.45;12.00;;;7.30;99.90;;;;;;4972438;28;20062;-87
2024/03/28 02:41:21;;;;;;;21.55;12.48;;;7.40;99.90;;;;;;4977007;28;20081;-88
2024/03/28 02:43:48;;;;;;;18.40;10.90;;;7.30;99.90;;;;;;4990452;28;20118;-88
2024/03/28 02:46:15;;;;;;;21.52;11.10;;;7.40;99.90;;;;;;4987971;28;20126;-88
2024/03/28 02:48:41;;;;;;;19.73;11.75;;;7.30;99.90;;;;;;4976414;28;20058;-88
2024/03/28 02:51:08;;;;;;;21.15;11.68;;;7.30;99.90;;;;;;4972763;29;20035;-88
2024/03/28 02:53:34;;;;;;;22.92;11.55;;;7.90;99.90;;;;;;4969804;28;20042;-88
2024/03/28 02:56:01;;;;;;;18.65;11.20;;;7.80;99.90;;;;;;4989456;28;20399;-88
2024/03/28 02:58:28;;;;;;;19.75;10.98;;;7.30;99.90;;;;;;4988751;28;20047;-89
2024/03/28 03:00:54;;;;;;;21.33;11.68;;;7.30;99.90;;;;;;4971866;28;20034;-88
2024/03/28 03:03:21;;;;;;;21.10;11.52;;;7.30;99.90;;;;;;4976309;28;20050;-88
2024/03/28 03:05:51;;;;;;;21.98;12.10;;;7.40;99.90;;;;;;4971190;28;20045;-88
2024/03/28 03:08:18;;;;;;;20.85;11.55;;;7.30;99.90;;;;;;4988601;28;20420;-88
2024/03/28 03:10:45;;;;;;;21.48;12.35;;;8.20;99.90;;;;;;4968976;28;20118;-88
2024/03/28 03:13:12;;;;;;;22.55;11.43;;;7.60;99.90;;;;;;4971779;28;20114;-88
2024/03/28 03:15:39;;;;;;;22.60;11.88;;;7.70;99.90;;;;;;4966272;28;20122;-88
2024/03/28 03:18:05;;;;;;;23.17;11.82;;;7.30;99.90;;;;;;4970006;28;20082;-88
2024/03/28 03:20:39;;;;;;;24.65;13.20;;;7.30;99.90;;;;;;4970749;28;20045;-88
2024/03/28 03:23:06;;;;;;;18.25;11.30;;;7.30;99.90;;;;;;4972390;29;20563;-88
2024/03/28 03:25:49;;;;;;;23.38;13.02;;;7.30;99.90;;;;;;4959660;29;20256;-89
2024/03/28 03:36:51;;;;;;;23.80;13.63;;;7.30;99.90;;;;;;4968334;28;20829;-88
2024/03/28 03:39:17;;;;;;;25.23;13.75;;;7.30;99.90;;;;;;4968663;29;20117;-89
2024/03/28 03:41:44;;;;;;;24.88;13.40;;;7.30;99.90;;;;;;4969693;28;20046;-88
2024/03/28 03:44:11;;;;;;;24.15;13.52;;;7.30;99.90;;;;;;4964919;29;20053;-88
2024/03/28 03:46:38;;;;;;;27.35;14.35;;;7.40;99.90;;;;;;4968773;28;20034;-88
2024/03/28 03:49:04;;;;;;;25.95;14.50;;;7.30;99.90;;;;;;4975292;28;20420;-88
2024/03/28 03:51:31;;;;;;;27.35;13.90;;;7.30;99.90;;;;;;4969417;28;20049;-88
2024/03/28 03:53:57;;;;;;;25.00;13.95;;;8.20;99.90;;;;;;4975119;28;20035;-88
2024/03/28 03:56:25;;;;;;;26.20;14.27;;;7.30;99.90;;;;;;4971932;28;20508;-88
2024/03/28 03:58:51;;;;;;;28.48;13.73;;;7.30;99.90;;;;;;4990677;28;20035;-88
2024/03/28 04:01:18;;;;;;;26.08;14.20;;;7.30;99.90;;;;;;4971940;28;20125;-88
2024/03/28 04:03:45;;;;;;;26.85;14.93;;;8.00;99.90;;;;;;4969200;28;20035;-89
2024/03/28 04:06:12;;;;;;;27.25;14.60;;;7.80;99.90;;;;;;4975079;28;20039;-88
2024/03/28 04:08:38;;;;;;;28.13;15.15;;;7.20;99.90;;;;;;4991636;28;20046;-88
2024/03/28 04:11:05;;;;;;;25.23;14.10;;;7.20;99.90;;;;;;4976360;28;20043;-88
2024/03/28 04:13:31;;;;;;;24.65;14.43;;;7.30;99.90;;;;;;4981700;29;20047;-88
2024/03/28 04:15:58;;;;;;;29.17;14.43;;;7.30;99.90;;;;;;4968888;28;20489;-88
2024/03/28 04:18:25;;;;;;;26.75;14.18;;;7.20;99.90;;;;;;4972014;29;20038;-88
2024/03/28 04:20:51;;;;;;;26.63;13.90;;;7.20;99.90;;;;;;4974553;28;20039;-88
2024/03/28 04:23:18;;;;;;;29.08;14.65;;;7.90;99.90;;;;;;4990429;28;20042;-88
2024/03/28 04:25:53;;;;;;;27.02;14.88;;;8.20;99.90;;;;;;4987196;28;20061;-89
2024/03/28 04:28:20;;;;;;;28.77;15.60;;;7.30;99.90;;;;;;4974876;28;20050;-88
2024/03/28 04:30:47;;;;;;;29.63;14.90;;;7.50;99.90;;;;;;4973682;28;20290;-88
2024/03/28 04:33:13;;;;;;;31.88;14.88;;;7.20;99.90;;;;;;4973659;28;20054;-88
2024/03/28 04:35:43;;;;;;;28.92;15.55;;;7.30;99.90;;;;;;4970618;28;20047;-88
2024/03/28 04:38:14;;;;;;;31.45;15.55;;;7.80;99.90;;;;;;4971836;29;20031;-88
2024/03/28 04:40:44;;;;;;;29.60;15.05;;;7.20;99.90;;;;;;4975060;28;20031;-88
2024/03/28 04:43:11;;;;;;;26.80;14.93;;;7.20;99.90;;;;;;4974937;28;20035;-88
2024/03/28 04:45:38;;;;;;;25.73;14.25;;;7.20;99.90;;;;;;4975697;28;20137;-88
2024/03/28 04:48:05;;;;;;;28.30;15.63;;;7.10;99.90;;;;;;4976859;28;20074;-88
2024/03/28 04:50:32;;;;;;;28.50;15.52;;;7.10;99.90;;;;;;4991853;28;20089;-88
2024/03/28 04:52:58;;;;;;;30.65;15.82;;;7.10;99.90;;;;;;4974926;28;20133;-88
2024/03/28 04:55:25;;;;;;;27.98;15.18;;;7.50;99.90;;;;;;4971789;28;20038;-88
2024/03/28 04:57:52;;;;;;;26.27;14.43;;;7.20;99.90;;;;;;4980407;28;20138;-88
2024/03/28 05:00:19;;;;;;;29.70;15.07;;;7.30;99.90;;;;;;4972491;28;20043;-88
2024/03/28 05:02:46;;;;;;;31.20;14.80;;;7.10;99.90;;;;;;4967543;28;20035;-88
2024/03/28 05:05:13;;;;;;;28.08;15.80;;;7.10;99.90;;;;;;4973043;28;20038;-88
2024/03/28 05:07:40;;;;;;;27.58;14.85;;;7.20;99.90;;;;;;4968625;28;20074;-89
2024/03/28 05:10:07;;;;;;;25.67;14.70;;;7.10;99.90;;;;;;4963495;28;20035;-89
2024/03/28 05:12:34;;;;;;;30.08;15.65;;;7.10;99.90;;;;;;4969827;28;20508;-87
2024/03/28 05:15:03;;;;;;;28.83;15.38;;;7.10;99.90;;;;;;4975960;28;20027;-88
2024/03/28 05:17:33;;;;;;;29.20;14.77;;;7.10;99.90;;;;;;4961726;28;20046;-88
2024/03/28 05:19:59;;;;;;;31.30;15.65;;;7.10;99.90;;;;;;4961456;28;20044;-88
2024/03/28 05:22:26;;;;;;;30.55;15.13;;;7.10;99.90;;;;;;4972292;28;20035;-88
2024/03/28 05:24:55;;;;;;;31.67;15.60;;;7.10;99.90;;;;;;4980651;28;20045;-89
2024/03/28 05:27:22;;;;;;;30.08;15.35;;;7.10;99.90;;;;;;4977393;28;20186;-88
2024/03/28 05:29:49;;;;;;;31.10;15.68;;;7.10;99.90;;;;;;4967393;28;20035;-89
2024/03/28 05:32:15;;;;;;;28.42;15.65;;;7.10;99.90;;;;;;4965053;28;20066;-88
2024/03/28 05:34:45;;;;;;;27.88;14.60;;;7.90;99.90;;;;;;4960991;28;20031;-89
2024/03/28 05:37:12;;;;;;;28.13;15.20;;;8.10;99.90;;;;;;4970017;28;20046;-88
2024/03/28 05:39:39;;;;;;;32.58;15.55;;;7.10;99.90;;;;;;4965682;28;20035;-88
2024/03/28 05:42:06;;;;;;;31.35;15.68;;;7.30;99.90;;;;;;4964461;28;20114;-88
2024/03/28 05:44:33;;;;;;;32.70;16.40;;;7.10;99.90;;;;;;4962449;28;20038;-89
2024/03/28 05:47:00;;;;;;;29.65;15.15;;;7.00;99.90;;;;;;4979615;28;20552;-89
2024/03/28 05:49:27;;;;;;;31.75;16.90;;;7.50;99.90;;;;;;4957840;28;20059;-88
2024/03/28 05:51:53;;;;;;;34.25;16.38;;;7.90;99.90;;;;;;4966521;28;20047;-88
2024/03/28 05:54:21;;;;;;;33.55;16.98;;;7.90;99.90;;;;;;4983060;28;20047;-88
2024/03/28 05:56:48;;;;;;;28.52;16.17;;;7.00;99.90;;;;;;4983774;28;20035;-88
2024/03/28 05:59:15;;;;;;;34.25;16.88;;;7.10;99.90;;;;;;4962876;28;20401;-88
2024/03/28 06:01:42;;;;;;;35.13;17.00;;;7.30;99.90;;;;;;4971732;28;20043;-87
2024/03/28 06:04:08;;;;;;;31.48;16.20;;;7.80;99.90;;;;;;4965864;28;20408;-88
2024/03/28 06:06:35;;;;;;;32.95;16.52;;;7.40;99.90;;;;;;4966358;28;20078;-88
2024/03/28 06:09:02;;;;;;;31.40;16.33;;;7.10;99.90;;;;;;4969489;28;20039;-88
2024/03/28 06:11:29;;;;;;;32.38;16.70;;;7.10;99.90;;;;;;4979864;28;20031;-88
2024/03/28 06:14:09;;;;;;;30.77;16.45;;;7.60;99.90;;;;;;4967380;28;20150;-88
2024/03/28 06:16:36;;;;;;;31.10;16.02;;;7.10;99.90;;;;;;4967850;28;20054;-89
2024/03/28 06:19:03;;;;;;;32.03;16.10;;;7.50;99.90;;;;;;4960666;28;20036;-89
2024/03/28 06:21:30;;;;;;;37.60;18.10;;;8.20;99.90;;;;;;4962013;28;20038;-89
2024/03/28 06:23:57;;;;;;;32.13;16.70;;;7.10;99.90;;;;;;4980686;28;20504;-89
2024/03/28 06:26:24;;;;;;;32.40;16.83;;;7.50;99.90;;;;;;4966667;28;20055;-89
2024/03/28 06:28:52;;;;;;;38.30;17.42;;;7.70;99.90;;;;;;4969459;28;20039;-89
2024/03/28 06:31:21;;;;;;;34.97;17.67;;;7.90;99.90;;;;;;4973789;28;20483;-89
2024/03/28 06:33:51;;;;;;;36.85;17.92;;;7.90;99.90;;;;;;4985563;28;20043;-89
2024/03/28 06:36:18;;;;;;;32.53;16.15;;;7.70;99.90;;;;;;4989795;28;20051;-89
2024/03/28 06:38:44;;;;;;;38.20;17.67;;;7.70;99.90;;;;;;4966101;28;20484;-89
2024/03/28 06:41:11;;;;;;;38.00;17.77;;;7.20;99.90;;;;;;4976007;28;20073;-89
2024/03/28 06:43:38;;;;;;;34.28;17.67;;;7.20;99.90;;;;;;4964188;28;20039;-88
2024/03/28 06:46:04;;;;;;;34.55;17.08;;;8.00;99.90;;;;;;4980313;28;20031;-88
2024/03/28 06:48:31;;;;;;;36.85;17.45;;;7.30;99.90;;;;;;4963579;28;20059;-89
2024/03/28 06:50:58;;;;;;;32.55;15.98;;;7.30;99.90;;;;;;4969616;28;20049;-88
2024/03/28 06:53:24;;;;;;;32.55;16.30;;;7.40;99.90;;;;;;4970835;28;20074;-88
2024/03/28 06:55:51;;;;;;;36.55;17.45;;;8.10;99.90;;;;;;4965276;28;20038;-87
2024/03/28 06:58:18;;;;;;;36.67;17.05;;;7.40;99.90;;;;;;4975081;28;20167;-89
2024/03/28 07:00:44;;;;;;;34.80;16.80;;;7.50;99.90;;;;;;4965097;28;20855;-89
2024/03/28 07:03:12;;;;;;;36.05;16.60;;;8.00;99.90;;;;;;4963348;29;20039;-89
2024/03/28 07:05:38;;;;;;;36.92;17.73;;;7.50;99.90;;;;;;4964493;28;20038;-89
2024/03/28 07:08:05;;;;;;;37.45;17.67;;;8.00;99.90;;;;;;4963502;28;20043;-89
2024/03/28 07:10:32;;;;;;;36.28;17.30;;;7.60;99.90;;;;;;4979076;28;20559;-89
2024/03/28 07:12:58;;;;;;;40.10;17.63;;;8.00;99.90;;;;;;4972052;28;20101;-89
2024/03/28 07:15:25;;;;;;;36.03;17.65;;;7.70;99.90;;;;;;4986545;28;20784;-90
2024/03/28 07:17:52;;;;;;;40.33;17.60;;;7.70;99.90;;;;;;4976670;28;20034;-89
2024/03/28 07:20:18;;;;;;;38.83;17.33;;;8.20;99.90;;;;;;4976145;28;20377;-89
2024/03/28 07:22:45;;;;;;;34.70;16.92;;;7.80;99.90;;;;;;4976615;28;20049;-90
2024/03/28 07:25:11;;;;;;;34.92;17.83;;;7.90;99.90;;;;;;4963018;28;20059;-90
2024/03/28 07:27:38;;;;;;;36.50;17.73;;;8.20;99.90;;;;;;4983755;28;20560;-90
2024/03/28 07:30:05;;;;;;;33.22;16.90;;;8.60;99.90;;;;;;4961988;29;20094;-90
2024/03/28 07:32:32;;;;;;;35.38;17.88;;;7.90;99.90;;;;;;4972885;28;20043;-90
2024/03/28 07:34:58;;;;;;;35.67;17.65;;;7.90;99.90;;;;;;4976453;28;20038;-90
2024/03/28 07:37:25;;;;;;;35.03;16.98;;;8.00;99.90;;;;;;4967848;28;20035;-91
2024/03/28 07:39:52;;;;;;;33.45;18.63;;;8.00;99.90;;;;;;4974256;28;20039;-90
2024/03/28 07:42:19;;;;;;;37.63;17.80;;;8.30;99.90;;;;;;4975671;28;20034;-91
2024/03/28 07:44:46;;;;;;;36.90;16.92;;;8.00;99.90;;;;;;4976114;28;20051;-91
2024/03/28 07:47:13;;;;;;;34.20;16.77;;;8.40;99.90;;;;;;4965490;29;20046;-91
2024/03/28 07:49:40;;;;;;;33.15;17.33;;;8.10;99.90;;;;;;4960960;29;20051;-90
2024/03/28 07:52:06;;;;;;;33.05;18.10;;;8.10;99.90;;;;;;4946827;29;20039;-90
2024/03/28 07:54:33;;;;;;;33.15;18.08;;;8.10;99.90;;;;;;4952753;29;20130;-90
2024/03/28 07:57:00;;;;;;;34.30;17.63;;;8.20;99.90;;;;;;4972650;29;20039;-90
2024/03/28 07:59:26;;;;;;;35.85;17.77;;;8.60;99.90;;;;;;4947059;29;20043;-89
2024/03/28 08:01:53;;;;;;;34.70;17.42;;;8.20;99.90;;;;;;4957021;29;20050;-90
2024/03/28 08:04:19;;;;;;;33.60;17.02;;;8.30;99.90;;;;;;4953873;29;20047;-89
2024/03/28 08:06:47;;;;;;;36.67;17.42;;;8.40;99.90;;;;;;4956850;29;20046;-90
2024/03/28 08:09:14;;;;;;;33.67;16.90;;;8.40;99.90;;;;;;4953026;29;20043;-89
2024/03/28 08:11:43;;;;;;;35.53;17.25;;;8.40;99.90;;;;;;4944563;29;20048;-89
2024/03/28 08:14:11;;;;;;;31.05;17.23;;;8.40;99.90;;;;;;4947023;29;20031;-90
2024/03/28 08:16:38;;;;;;;33.58;17.52;;;8.50;99.90;;;;;;4950754;29;20047;-87
2024/03/28 08:19:06;;;;;;;30.05;16.23;;;8.50;99.90;;;;;;4953445;29;20042;-88
2024/03/28 08:21:33;;;;;;;29.60;16.83;;;8.90;99.90;;;;;;4973167;29;20118;-87
2024/03/28 08:23:59;;;;;;;31.90;16.10;;;8.70;99.90;;;;;;4975986;29;20138;-87
2024/03/28 08:26:26;;;;;;;30.35;16.92;;;8.70;99.90;;;;;;4955101;29;20070;-87
2024/03/28 08:28:54;;;;;;;30.90;16.33;;;8.80;99.90;;;;;;4954365;29;20233;-87
2024/03/28 08:31:23;;;;;;;29.88;15.90;;;8.90;99.90;;;;;;4958735;29;20046;-87
2024/03/28 08:33:50;;;;;;;32.33;16.35;;;8.90;99.90;;;;;;4958303;29;20039;-87
2024/03/28 08:36:18;;;;;;;27.13;14.48;;;9.00;99.90;;;;;;4975406;29;20098;-87
2024/03/28 08:38:46;;;;;;;30.67;14.57;;;9.10;99.90;;;;;;4957861;29;20098;-87
2024/03/28 08:41:13;;;;;;;30.40;16.88;;;9.10;99.90;;;;;;4957099;29;20416;-87
2024/03/28 08:43:41;;;;;;;24.67;14.15;;;9.20;99.90;;;;;;4959185;29;20101;-87
2024/03/28 08:46:08;;;;;;;27.42;14.23;;;9.90;99.90;;;;;;4959097;29;20050;-87
2024/03/28 08:48:39;;;;;;;28.42;15.05;;;9.50;99.90;;;;;;4969168;29;20059;-90
2024/03/28 08:51:05;;;;;;;26.48;15.15;;;9.50;99.90;;;;;;4953255;29;20587;-90
2024/03/28 08:53:32;;;;;;;28.63;14.48;;;9.60;99.90;;;;;;4948999;29;20075;-91
2024/03/28 08:56:00;;;;;;;25.13;13.30;;;10.60;99.90;;;;;;4974009;29;20035;-90
2024/03/28 08:58:29;;;;;;;24.73;13.02;;;9.90;99.90;;;;;;4959613;29;20042;-89
2024/03/28 09:00:56;;;;;;;24.58;13.25;;;9.90;99.90;;;;;;4974996;29;20094;-89
2024/03/28 09:03:23;;;;;;;23.02;13.23;;;10.00;99.90;;;;;;4949101;29;20397;-90
2024/03/28 09:05:49;;;;;;;22.13;12.93;;;10.10;99.90;;;;;;4972919;29;20082;-90
2024/03/28 09:08:16;;;;;;;23.80;13.00;;;10.20;99.90;;;;;;4956813;29;20046;-91
2024/03/28 09:10:44;;;;;;;22.92;12.80;;;10.50;99.90;;;;;;4965505;29;20050;-89
2024/03/28 09:13:10;;;;;;;21.80;11.88;;;10.40;99.90;;;;;;4976048;29;20129;-88
2024/03/28 09:15:40;;;;;;;21.52;11.98;;;10.60;99.90;;;;;;4956217;29;20124;-88
2024/03/28 09:18:07;;;;;;;21.23;12.02;;;10.80;99.90;;;;;;4957067;29;20512;-90
2024/03/28 09:20:33;;;;;;;22.38;11.88;;;10.80;99.90;;;;;;4954274;29;20039;-89
2024/03/28 09:23:00;;;;;;;20.58;10.85;;;11.60;99.90;;;;;;4955138;29;20090;-89
2024/03/28 09:25:27;;;;;;;19.15;10.60;;;11.30;99.90;;;;;;4952742;29;20035;-90
2024/03/28 09:27:54;;;;;;;21.08;10.98;;;11.10;99.90;;;;;;4953398;29;20043;-90
2024/03/28 09:30:21;;;;;;;19.95;10.45;;;11.40;99.90;;;;;;4946321;29;20043;-89
2024/03/28 09:32:49;;;;;;;18.30;10.30;;;11.40;99.90;;;;;;4953592;29;20070;-89
2024/03/28 09:35:16;;;;;;;16.17;9.40;;;11.30;99.90;;;;;;4966353;29;20520;-90
2024/03/28 09:37:43;;;;;;;15.68;9.63;;;11.30;99.90;;;;;;4958238;28;20043;-89
2024/03/28 09:40:10;;;;;;;17.85;9.55;;;11.30;99.90;;;;;;4952751;29;20126;-90
2024/03/28 09:42:37;;;;;;;16.20;9.50;;;11.50;99.90;;;;;;4959166;29;20477;-91
2024/03/28 09:45:07;;;;;;;15.52;9.05;;;11.60;99.90;;;;;;4949133;29;20040;-90
2024/03/28 09:47:36;;;;;;;15.73;8.95;;;11.60;99.90;;;;;;4945882;29;20122;-90
2024/03/28 09:50:09;;;;;;;16.27;8.55;;;11.60;99.90;;;;;;4990784;28;20062;-91
2024/03/28 09:52:36;;;;;;;12.88;8.30;;;11.80;99.90;;;;;;4974054;28;20496;-91
2024/03/28 09:55:07;;;;;;;12.15;7.88;;;12.00;99.90;;;;;;4978033;28;20109;-91
2024/03/28 09:57:35;;;;;;;13.45;7.50;;;12.10;99.90;;;;;;4974891;28;20126;-91
2024/03/28 10:00:02;;;;;;;13.75;8.13;;;12.10;99.90;;;;;;4973207;28;20404;-91
2024/03/28 10:02:55;;;;;;;13.90;7.78;;;12.20;99.90;;;;;;4976365;28;20087;-91
2024/03/28 10:05:21;;;;;;;10.60;6.88;;;12.20;99.90;;;;;;4973138;29;20043;-90
2024/03/28 10:07:49;;;;;;;11.23;6.93;;;12.30;99.90;;;;;;4972264;28;20456;-85
2024/03/28 10:10:17;;;;;;;13.05;7.00;;;12.40;99.90;;;;;;4973060;29;20067;-90
2024/03/28 10:12:58;;;;;;;10.73;6.72;;;12.50;99.90;;;;;;4966199;28;20078;-89
2024/03/28 10:15:25;;;;;;;12.27;6.93;;;12.50;99.90;;;;;;4967573;28;20042;-90
2024/03/28 10:18:05;;;;;;;9.88;6.22;;;12.50;99.90;;;;;;4962150;28;20046;-90
2024/03/28 10:20:37;;;;;;;9.68;6.20;;;12.50;99.90;;;;;;4962750;29;20035;-89
2024/03/28 10:23:07;;;;;;;10.30;5.93;;;12.50;99.90;;;;;;4966292;29;20401;-89
2024/03/28 10:25:34;;;;;;;10.23;6.10;;;12.60;99.90;;;;;;4970819;28;20074;-89
2024/03/28 10:28:01;;;;;;;8.05;4.72;;;12.80;99.90;;;;;;4967006;28;20035;-89
2024/03/28 10:30:27;;;;;;;9.27;5.20;;;12.70;99.90;;;;;;4991850;28;20046;-89
2024/03/28 10:33:03;;;;;;;8.10;4.90;;;12.70;99.90;;;;;;4964954;29;20044;-90
2024/03/28 10:35:35;;;;;;;7.60;4.60;;;12.60;99.90;;;;;;4970619;28;20046;-90
2024/03/28 10:38:06;;;;;;;7.03;4.25;;;12.60;99.90;;;;;;4973359;28;20045;-90
2024/03/28 10:40:36;;;;;;;7.70;5.10;;;12.70;99.90;;;;;;4977037;28;20504;-87
2024/03/28 10:43:04;;;;;;;7.53;4.80;;;12.70;99.90;;;;;;4973181;28;20077;-90
2024/03/28 10:45:32;;;;;;;8.07;4.72;;;12.60;99.90;;;;;;4973259;28;20045;-90
2024/03/28 10:48:00;;;;;;;7.63;4.72;;;12.40;99.90;;;;;;4973402;28;20097;-90
2024/03/28 10:50:42;;;;;;;5.82;4.00;;;12.30;99.90;;;;;;4970813;28;20516;-89
2024/03/28 10:53:23;;;;;;;6.72;3.90;;;12.10;99.90;;;;;;4972305;28;20042;-89
2024/03/28 10:55:56;;;;;;;5.28;3.58;;;12.00;99.90;;;;;;4987996;29;20093;-90
2024/03/28 10:58:25;;;;;;;5.72;3.60;;;12.10;99.90;;;;;;4963372;29;20043;-89
2024/03/28 11:00:53;;;;;;;6.85;3.60;;;12.10;99.90;;;;;;4965114;29;20489;-90
2024/03/28 11:03:23;;;;;;;5.28;3.60;;;12.30;99.90;;;;;;4983151;29;20043;-90
2024/03/28 11:05:50;;;;;;;6.38;3.15;;;12.40;99.90;;;;;;4968517;29;20035;-90
2024/03/28 11:08:18;;;;;;;4.22;3.00;;;12.60;99.90;;;;;;4972281;28;20524;-90
2024/03/28 11:10:49;;;;;;;4.97;3.28;;;12.80;99.90;;;;;;4966305;28;20047;-90
2024/03/28 11:13:16;;;;;;;4.68;3.03;;;12.90;99.90;;;;;;4971662;28;20522;-90
2024/03/28 11:15:43;;;;;;;5.88;3.10;;;12.90;99.90;;;;;;4969220;28;20031;-90
2024/03/28 11:18:14;;;;;;;5.07;3.17;;;12.80;99.90;;;;;;4976115;28;20043;-89
2024/03/28 11:20:50;;;;;;;8.50;3.45;;;12.60;99.90;;;;;;4992128;28;20082;-90
2024/03/28 11:23:17;;;;;;;7.28;4.88;;;12.40;99.90;;;;;;4992404;28;20479;-89
2024/03/28 11:25:46;;;;;;;7.65;3.80;;;12.30;99.90;;;;;;4972580;29;20138;-90
2024/03/28 11:28:14;;;;;;;5.15;3.30;;;12.00;99.90;;;;;;4968294;28;20448;-90
2024/03/28 11:30:53;;;;;;;4.72;3.03;;;11.80;99.90;;;;;;4966636;28;20830;-90
2024/03/28 11:33:33;;;;;;;5.47;2.95;;;11.60;99.90;;;;;;4974150;28;20035;-90
2024/03/28 11:36:05;;;;;;;4.05;2.30;;;11.30;99.90;;;;;;4968681;28;20378;-90
2024/03/28 11:38:36;;;;;;;4.95;2.25;;;11.20;99.90;;;;;;4970205;28;20175;-90
2024/03/28 11:41:06;;;;;;;4.13;2.40;;;10.90;99.90;;;;;;4972623;29;20118;-90
2024/03/28 11:43:33;;;;;;;4.03;2.50;;;10.80;99.90;;;;;;5000268;28;20494;-91
2024/03/28 11:46:01;;;;;;;4.68;2.35;;;10.70;99.90;;;;;;4969220;29;20039;-91
2024/03/28 11:48:35;;;;;;;4.03;2.60;;;10.40;99.90;;;;;;4969946;29;20086;-91
2024/03/28 11:51:04;;;;;;;6.95;2.63;;;10.00;99.90;;;;;;4956195;29;20047;-91
2024/03/28 11:53:34;;;;;;;4.65;2.47;;;9.90;99.90;;;;;;4967714;29;20125;-91
2024/03/28 11:56:01;;;;;;;8.95;3.22;;;9.90;99.90;;;;;;4940285;29;20044;-92
2024/03/28 11:58:29;;;;;;;5.50;2.60;;;9.40;99.90;;;;;;4963319;29;20113;-92
2024/03/28 12:00:57;;;;;;;3.38;1.95;;;9.20;99.90;;;;;;4947537;29;20035;-89
2024/03/28 12:03:24;;;;;;;3.47;1.80;;;9.00;99.90;;;;;;4963499;29;20102;-90
2024/03/28 12:05:52;;;;;;;3.22;1.70;;;8.70;99.90;;;;;;4964675;29;20058;-90
2024/03/28 12:08:24;;;;;;;2.70;1.58;;;8.50;99.90;;;;;;4956487;29;20555;-91
2024/03/28 12:10:51;;;;;;;3.42;1.70;;;8.70;99.90;;;;;;4951601;29;20044;-90
2024/03/28 12:13:18;;;;;;;3.33;1.90;;;9.10;99.90;;;;;;4955049;29;20047;-91
2024/03/28 12:15:54;;;;;;;3.17;1.70;;;8.10;99.90;;;;;;4948322;29;20105;-91
2024/03/28 12:18:21;;;;;;;2.80;1.33;;;8.80;99.90;;;;;;4969008;29;20046;-91
2024/03/28 12:20:48;;;;;;;5.53;1.58;;;8.00;99.90;;;;;;4966250;29;20039;-90
2024/03/28 12:23:14;;;;;;;4.72;1.55;;;7.90;99.90;;;;;;4960059;29;20043;-89
2024/03/28 12:25:47;;;;;;;3.08;1.40;;;7.80;99.90;;;;;;4947653;29;20066;-89
2024/03/28 12:28:19;;;;;;;2.88;1.30;;;8.10;99.90;;;;;;4956286;29;20043;-90
2024/03/28 12:30:54;;;;;;;2.30;1.15;;;8.50;99.90;;;;;;4955036;29;20555;-91
2024/03/28 12:33:23;;;;;;;3.23;1.70;;;8.10;99.90;;;;;;4944845;29;20039;-89
2024/03/28 12:35:55;;;;;;;4.10;2.78;;;7.70;99.90;;;;;;4954441;29;20046;-90
2024/03/28 12:38:22;;;;;;;3.92;2.80;;;8.50;99.90;;;;;;4955279;29;20070;-89
2024/03/28 12:40:50;;;;;;;4.35;3.10;;;8.00;99.90;;;;;;4950955;29;20046;-81
2024/03/28 12:43:26;;;;;;;3.50;2.50;;;7.60;99.90;;;;;;4955391;29;20039;-95
2024/03/28 12:46:04;;;;;;;2.25;1.13;;;8.30;99.90;;;;;;4948844;29;20552;-95
2024/03/28 12:48:33;;;;;;;2.28;0.98;;;7.50;99.90;;;;;;4942298;29;20063;-94
2024/03/28 12:51:00;;;;;;;2.92;0.90;;;8.20;99.90;;;;;;4951340;29;20043;-94
2024/03/28 12:53:27;;;;;;;3.42;2.00;;;7.50;99.90;;;;;;4953779;29;20516;-94